createdAt,value
2023-01-20T00:00:03.225Z,85.4
2023-01-20T00:03:03.275Z,85.4
2023-01-20T00:06:03.270Z,85.4
2023-01-20T00:09:03.149Z,85.4
2023-01-20T00:12:03.216Z,85.4
2023-01-20T00:15:03.165Z,85.4
2023-01-20T00:18:03.158Z,85.4
2023-01-20T00:21:03.231Z,85.4
2023-01-20T00:24:03.149Z,85.4
2023-01-20T00:27:03.139Z,85.1
2023-01-20T00:30:03.189Z,85.1
2023-01-20T00:33:03.159Z,85.1
2023-01-20T00:36:03.341Z,85.1
2023-01-20T00:39:03.266Z,85.1
2023-01-20T00:42:03.155Z,85.1
2023-01-20T00:45:03.229Z,85.1
2023-01-20T00:48:03.177Z,85.3
2023-01-20T00:51:03.179Z,85.3
2023-01-20T00:54:03.117Z,85.3
2023-01-20T00:57:03.217Z,85.3
2023-01-20T01:00:03.279Z,85.3
2023-01-20T01:03:03.196Z,85.6
2023-01-20T01:06:03.157Z,85.6
2023-01-20T01:09:03.237Z,85.6
2023-01-20T01:12:03.165Z,85.6
2023-01-20T01:15:03.253Z,85.6
2023-01-20T01:18:03.126Z,85.6
2023-01-20T01:21:03.213Z,85.6
2023-01-20T01:24:03.157Z,85.6
2023-01-20T01:27:03.149Z,85.6
2023-01-20T01:30:03.246Z,85.6
2023-01-20T01:33:03.181Z,85.6
2023-01-20T01:36:03.177Z,85.6
2023-01-20T01:39:03.148Z,85.6
2023-01-20T01:42:03.164Z,85.6
2023-01-20T01:45:03.191Z,85.6
2023-01-20T01:48:03.200Z,85.6
2023-01-20T01:51:03.186Z,85.6
2023-01-20T01:54:03.191Z,85.6
2023-01-20T01:57:03.231Z,85.6
2023-01-20T02:00:03.162Z,85.6
2023-01-20T02:03:03.159Z,85.5
2023-01-20T02:06:03.268Z,85.5
2023-01-20T02:09:03.136Z,85.5
2023-01-20T02:12:03.157Z,85.5
2023-01-20T02:15:03.479Z,85.5
2023-01-20T02:18:03.228Z,85.5
2023-01-20T02:21:03.174Z,85.5
2023-01-20T02:24:03.214Z,85.5
2023-01-20T02:27:03.160Z,85.5
2023-01-20T02:30:03.432Z,85.5
2023-01-20T02:33:03.122Z,85.5
2023-01-20T02:36:03.177Z,85.3
2023-01-20T02:39:03.196Z,85.3
2023-01-20T02:42:03.212Z,85.3
2023-01-20T02:45:03.254Z,85.3
2023-01-20T02:48:03.312Z,85.3
2023-01-20T02:51:03.271Z,85.3
2023-01-20T02:54:03.192Z,85.3
2023-01-20T02:57:03.156Z,85.2
2023-01-20T03:00:03.229Z,85.2
2023-01-20T03:03:03.148Z,85.2
2023-01-20T03:06:03.368Z,85.2
2023-01-20T03:09:03.186Z,85.2
2023-01-20T03:12:03.235Z,85.3
2023-01-20T03:15:03.755Z,85.3
2023-01-20T03:18:03.156Z,85.3
2023-01-20T03:21:03.199Z,85.3
2023-01-20T03:24:03.230Z,85.3
2023-01-20T03:27:03.134Z,85.3
2023-01-20T03:30:03.176Z,85.3
2023-01-20T03:33:03.148Z,85.3
2023-01-20T03:36:03.178Z,85.3
2023-01-20T03:39:03.175Z,85.3
2023-01-20T03:42:03.162Z,85.3
2023-01-20T03:45:03.207Z,85.3
2023-01-20T03:48:03.155Z,85.3
2023-01-20T03:51:03.185Z,85.2
2023-01-20T03:54:03.231Z,85.2
2023-01-20T03:57:03.175Z,85.2
2023-01-20T04:00:03.306Z,85.2
2023-01-20T04:03:03.526Z,85.2
2023-01-20T04:06:03.127Z,85.2
2023-01-20T04:09:03.199Z,85.2
2023-01-20T04:12:03.178Z,85.2
2023-01-20T04:15:03.208Z,85.2
2023-01-20T04:18:03.129Z,85.2
2023-01-20T04:21:03.199Z,85.2
2023-01-20T04:24:03.135Z,85.2
2023-01-20T04:27:03.226Z,85.2
2023-01-20T04:30:03.232Z,85.2
2023-01-20T04:33:03.199Z,85.2
2023-01-20T04:36:03.247Z,85.1
2023-01-20T04:39:03.199Z,85.1
2023-01-20T04:42:03.125Z,85
2023-01-20T04:45:03.133Z,85
2023-01-20T04:48:03.145Z,85
2023-01-20T04:51:03.156Z,85
2023-01-20T04:54:03.241Z,85
2023-01-20T04:57:03.186Z,84.8
2023-01-20T05:00:03.468Z,84.8
2023-01-20T05:03:03.280Z,84.8
2023-01-20T05:06:03.221Z,84.8
2023-01-20T05:09:03.223Z,84.8
2023-01-20T05:12:03.179Z,84.8
2023-01-20T05:15:03.156Z,84.8
2023-01-20T05:18:03.158Z,84.8
2023-01-20T05:21:03.178Z,84.8
2023-01-20T05:24:03.199Z,84.6
2023-01-20T05:27:03.425Z,84.6
2023-01-20T05:30:03.202Z,84.6
2023-01-20T05:33:03.149Z,84.6
2023-01-20T05:36:03.134Z,84.6
2023-01-20T05:39:03.146Z,84.2
2023-01-20T05:42:03.152Z,84.2
2023-01-20T05:45:03.107Z,84.2
2023-01-20T05:48:03.170Z,84.2
2023-01-20T05:51:03.164Z,84.2
2023-01-20T05:54:03.221Z,83.7
2023-01-20T05:57:03.217Z,83.7
2023-01-20T06:00:03.319Z,83.7
2023-01-20T06:03:03.543Z,83.7
2023-01-20T06:06:03.205Z,83.7
2023-01-20T06:09:03.190Z,83.7
2023-01-20T06:12:03.111Z,83.7
2023-01-20T06:15:03.171Z,83.1
2023-01-20T06:18:03.208Z,83.1
2023-01-20T06:21:03.154Z,83.1
2023-01-20T06:24:03.154Z,83.1
2023-01-20T06:27:03.101Z,83.1
2023-01-20T06:30:03.186Z,82.8
2023-01-20T06:33:03.127Z,82.8
2023-01-20T06:36:03.159Z,82.8
2023-01-20T06:39:03.133Z,82.8
2023-01-20T06:42:03.122Z,82.8
2023-01-20T06:45:03.129Z,82.8
2023-01-20T06:48:03.156Z,82.8
2023-01-20T06:51:03.149Z,82.8
2023-01-20T06:54:03.198Z,82.8
2023-01-20T06:57:03.142Z,82.8
2023-01-20T07:00:03.171Z,82.8
2023-01-20T07:03:03.145Z,82.8
2023-01-20T07:06:03.143Z,83.2
2023-01-20T07:09:03.187Z,83.2
2023-01-20T07:12:03.204Z,83.2
2023-01-20T07:15:03.208Z,83.2
2023-01-20T07:18:03.205Z,83.2
2023-01-20T07:21:03.295Z,84.9
2023-01-20T07:24:03.270Z,84.9
2023-01-20T07:27:03.202Z,84.9
2023-01-20T07:30:03.333Z,85.3
2023-01-20T07:33:03.325Z,85.3
2023-01-20T07:36:03.157Z,85.3
2023-01-20T07:39:03.347Z,85.6
2023-01-20T07:42:03.192Z,85.6
2023-01-20T07:45:03.372Z,85.6
2023-01-20T07:48:03.149Z,85.6
2023-01-20T07:51:03.243Z,85.9
2023-01-20T07:54:03.197Z,85.9
2023-01-20T07:57:03.215Z,85.9
2023-01-20T08:00:03.393Z,85.9
2023-01-20T08:03:03.249Z,86
2023-01-20T08:06:03.255Z,86
2023-01-20T08:09:03.269Z,86
2023-01-20T08:12:03.184Z,86
2023-01-20T08:15:03.244Z,86
2023-01-20T08:18:03.312Z,86
2023-01-20T08:21:03.313Z,86
2023-01-20T08:24:03.210Z,86
2023-01-20T08:27:03.201Z,86
2023-01-20T08:30:03.298Z,85.9
2023-01-20T08:33:03.235Z,85.9
2023-01-20T08:36:03.203Z,85.9
2023-01-20T08:39:03.382Z,85.9
2023-01-20T08:42:03.199Z,85.9
2023-01-20T08:45:03.272Z,85.9
2023-01-20T08:48:03.268Z,85.9
2023-01-20T08:51:03.323Z,85.8
2023-01-20T08:54:03.290Z,85.8
2023-01-20T08:57:03.220Z,85.8
2023-01-20T09:00:03.438Z,85.8
2023-01-20T09:03:03.207Z,85.8
2023-01-20T09:06:03.385Z,85.8
2023-01-20T09:09:06.767Z,85.8
2023-01-20T09:12:03.280Z,85.8
2023-01-20T09:15:07.196Z,85.9
2023-01-20T09:18:03.272Z,85.9
2023-01-20T09:21:03.304Z,85.9
2023-01-20T09:24:03.364Z,85.9
2023-01-20T09:27:03.257Z,86
2023-01-20T09:30:03.408Z,86
2023-01-20T09:33:03.197Z,86
2023-01-20T09:36:03.191Z,86
2023-01-20T09:39:03.348Z,86
2023-01-20T09:42:03.226Z,86
2023-01-20T09:45:03.226Z,86
2023-01-20T09:48:03.227Z,86.4
2023-01-20T09:51:03.204Z,86.4
2023-01-20T09:54:03.209Z,86.4
2023-01-20T09:57:03.284Z,86.4
2023-01-20T10:00:03.324Z,86.4
2023-01-20T10:03:03.206Z,86.4
2023-01-20T10:06:03.209Z,86.4
2023-01-20T10:09:09.135Z,86.4
2023-01-20T10:12:03.217Z,86.9
2023-01-20T10:15:03.259Z,86.9
2023-01-20T10:18:03.204Z,86.9
2023-01-20T10:21:03.192Z,86.9
2023-01-20T10:24:03.179Z,86.9
2023-01-20T10:27:03.212Z,86.9
2023-01-20T10:30:03.433Z,86.9
2023-01-20T10:33:03.270Z,86.9
2023-01-20T10:36:03.196Z,86.9
2023-01-20T10:39:03.229Z,86.9
2023-01-20T10:42:03.179Z,86.9
2023-01-20T10:45:03.260Z,86.9
2023-01-20T10:48:03.229Z,86.4
2023-01-20T10:51:03.308Z,86.4
2023-01-20T10:54:03.228Z,86.4
2023-01-20T10:57:03.420Z,86.4
2023-01-20T11:00:03.542Z,86.4
2023-01-20T11:03:03.596Z,86.4
2023-01-20T11:06:03.184Z,86.4
2023-01-20T11:09:03.170Z,86.4
2023-01-20T11:12:03.235Z,84.9
2023-01-20T11:15:03.194Z,84.9
2023-01-20T11:18:03.182Z,84.9
2023-01-20T11:21:03.264Z,84.9
2023-01-20T11:24:03.200Z,84.9
2023-01-20T11:27:03.286Z,84.9
2023-01-20T11:30:03.394Z,84.9
2023-01-20T11:33:03.357Z,84.9
2023-01-20T11:36:03.418Z,84.9
2023-01-20T11:39:03.234Z,84.9
2023-01-20T11:42:03.416Z,84.9
2023-01-20T11:45:23.919Z,84.9
2023-01-20T11:48:03.242Z,84.9
2023-01-20T11:51:03.328Z,84.9
2023-01-20T11:54:03.207Z,84.9
2023-01-20T11:57:03.191Z,84.9
2023-01-20T12:00:03.453Z,84.9
2023-01-20T12:03:03.225Z,84.9
2023-01-20T12:06:03.426Z,84.9
2023-01-20T12:09:03.398Z,84.9
2023-01-20T12:12:03.319Z,83.1
2023-01-20T12:15:03.350Z,83.1
2023-01-20T12:18:03.573Z,83.1
2023-01-20T12:21:03.232Z,83.1
2023-01-20T12:24:05.628Z,83.1
2023-01-20T12:27:03.284Z,82.7
2023-01-20T12:30:03.633Z,82.7
2023-01-20T12:33:03.231Z,82.7
2023-01-20T12:36:05.291Z,82.7
2023-01-20T12:39:03.289Z,81.2
2023-01-20T12:42:05.384Z,81.2
2023-01-20T12:45:03.338Z,81.2
2023-01-20T12:48:03.236Z,81.2
2023-01-20T12:51:03.261Z,81.2
2023-01-20T12:54:03.263Z,81.2
2023-01-20T12:57:03.687Z,81.2
2023-01-20T13:00:03.645Z,81.2
2023-01-20T13:03:03.256Z,81.2
2023-01-20T13:06:03.283Z,81.2
2023-01-20T13:09:03.309Z,81.2
2023-01-20T13:12:03.308Z,81.2
2023-01-20T13:15:03.790Z,79.4
2023-01-20T13:18:03.316Z,79.2
2023-01-20T13:21:03.275Z,79.2
2023-01-20T13:24:03.259Z,79.2
2023-01-20T13:27:03.392Z,79.2
2023-01-20T13:30:03.474Z,79.2
2023-01-20T13:33:03.272Z,79.2
2023-01-20T13:36:03.229Z,79.2
2023-01-20T13:39:03.349Z,79.2
2023-01-20T13:42:03.286Z,79.2
2023-01-20T13:45:03.388Z,77.6
2023-01-20T13:48:03.391Z,77.6
2023-01-20T13:51:03.431Z,77.6
2023-01-20T13:54:03.469Z,77.6
2023-01-20T13:57:03.240Z,77.6
2023-01-20T14:00:03.749Z,77.6
2023-01-20T14:03:03.369Z,77.9
2023-01-20T14:06:03.398Z,77.9
2023-01-20T14:09:03.262Z,77.9
2023-01-20T14:12:03.267Z,77.9
2023-01-20T14:15:03.559Z,77.8
2023-01-20T14:18:03.390Z,77.8
2023-01-20T14:21:06.301Z,77.8
2023-01-20T14:24:03.351Z,77.8
2023-01-20T14:27:03.270Z,77.1
2023-01-20T14:30:03.595Z,77.1
2023-01-20T14:33:03.194Z,77.1
2023-01-20T14:36:03.289Z,77.1
2023-01-20T14:39:06.471Z,77.1
2023-01-20T14:42:03.392Z,77.1
2023-01-20T14:45:03.266Z,77.1
2023-01-20T14:48:03.273Z,77.1
2023-01-20T14:51:03.276Z,77.2
2023-01-20T14:57:03.547Z,77.2
2023-01-20T15:00:03.672Z,77.2
2023-01-20T15:03:14.237Z,77.2
2023-01-20T15:06:03.619Z,77.9
2023-01-20T15:09:09.880Z,77.9
2023-01-20T15:12:03.689Z,78
2023-01-20T15:15:03.611Z,78
2023-01-20T15:18:03.600Z,78
2023-01-20T15:21:19.732Z,78
2023-01-20T15:24:03.525Z,78
2023-01-20T15:27:03.622Z,78
2023-01-20T15:30:03.622Z,78
2023-01-20T15:33:03.634Z,78.6
2023-01-20T15:36:03.649Z,78.6
2023-01-20T15:39:03.561Z,78.6
2023-01-20T15:42:03.508Z,79.1
2023-01-20T15:45:03.743Z,79.1
2023-01-20T15:48:03.485Z,79.1
2023-01-20T15:51:03.743Z,79.1
2023-01-20T15:54:03.568Z,79.5
2023-01-20T15:57:03.508Z,79.5
2023-01-20T16:00:03.642Z,79.5
2023-01-20T16:03:03.573Z,79.5
2023-01-20T16:06:03.563Z,79.5
2023-01-20T16:09:03.452Z,79.9
2023-01-20T16:12:03.452Z,79.9
2023-01-20T16:15:03.423Z,79.9
2023-01-20T16:18:03.463Z,79.9
2023-01-20T16:21:03.515Z,79.9
2023-01-20T16:24:03.455Z,80.4
2023-01-20T16:27:03.512Z,80.4
2023-01-20T16:30:03.616Z,80.4
2023-01-20T16:33:34.930Z,80.4
2023-01-20T16:36:03.428Z,80.4
2023-01-20T16:39:03.532Z,80.4
2023-01-20T16:42:03.462Z,80.4
2023-01-20T16:45:03.489Z,80.8
2023-01-20T16:48:03.511Z,80.8
2023-01-20T16:51:03.623Z,80.8
2023-01-20T16:54:03.609Z,80.8
2023-01-20T16:57:03.546Z,80.8
2023-01-20T17:00:03.573Z,80.9
2023-01-20T17:03:03.437Z,81
2023-01-20T17:06:03.616Z,81
2023-01-20T17:09:03.515Z,81
2023-01-20T17:12:03.537Z,81
2023-01-20T17:15:03.507Z,81
2023-01-20T17:18:03.609Z,81
2023-01-20T17:21:03.466Z,81
2023-01-20T17:24:03.511Z,81
2023-01-20T17:27:03.453Z,81
2023-01-20T17:30:03.576Z,81.1
2023-01-20T17:33:03.461Z,81.1
2023-01-20T17:36:03.608Z,81.1
2023-01-20T17:39:03.570Z,81.1
2023-01-20T17:42:03.596Z,81.1
2023-01-20T17:45:03.533Z,81.4
2023-01-20T17:48:06.849Z,81.4
2023-01-20T17:51:03.601Z,81.4
2023-01-20T17:54:06.508Z,81.4
2023-01-20T17:57:03.423Z,81.4
2023-01-20T18:00:03.514Z,81.4
2023-01-20T18:03:03.524Z,81.4
2023-01-20T18:06:03.501Z,81.4
2023-01-20T18:09:03.538Z,81.4
2023-01-20T18:12:03.557Z,81.4
2023-01-20T18:15:03.452Z,81.8
2023-01-20T18:18:03.553Z,81.8
2023-01-20T18:21:03.527Z,81.8
2023-01-20T18:24:03.543Z,81.8
2023-01-20T18:27:03.486Z,81.8
2023-01-20T18:30:03.493Z,82.1
2023-01-20T18:33:03.466Z,82.1
2023-01-20T18:36:03.464Z,82.1
2023-01-20T18:39:03.468Z,82.1
2023-01-20T18:42:03.468Z,82.1
2023-01-20T18:45:03.544Z,82.1
2023-01-20T18:48:03.483Z,82.1
2023-01-20T18:51:03.574Z,82.1
2023-01-20T18:54:03.348Z,82.1
2023-01-20T18:57:03.494Z,82.1
2023-01-20T19:00:03.405Z,82.1
2023-01-20T19:03:03.542Z,82.1
2023-01-20T19:06:03.481Z,82.3
2023-01-20T19:09:03.556Z,82.3
2023-01-20T19:12:03.497Z,82.3
2023-01-20T19:15:03.492Z,82.3
2023-01-20T19:18:03.567Z,82.3
2023-01-20T19:21:03.469Z,82.3
2023-01-20T19:24:03.973Z,82.3
2023-01-20T19:27:03.534Z,82.3
2023-01-20T19:30:03.493Z,82.3
2023-01-20T19:33:03.516Z,82.3
2023-01-20T19:36:03.464Z,82.3
2023-01-20T19:39:03.662Z,82.7
2023-01-20T19:42:03.501Z,82.7
2023-01-20T19:45:03.545Z,82.7
2023-01-20T19:48:03.523Z,82.7
2023-01-20T19:51:03.656Z,82.7
2023-01-20T19:54:03.624Z,82.7
2023-01-20T19:57:03.547Z,82.7
2023-01-20T20:00:03.556Z,82.7
2023-01-20T20:03:03.593Z,82.3
2023-01-20T20:06:03.511Z,82.3
2023-01-20T20:09:03.586Z,82.3
2023-01-20T20:12:03.525Z,82.3
2023-01-20T20:15:03.470Z,82.3
2023-01-20T20:18:03.542Z,82.3
2023-01-20T20:21:03.504Z,82.3
2023-01-20T20:24:03.828Z,82
2023-01-20T20:27:03.488Z,82
2023-01-20T20:30:03.442Z,82
2023-01-20T20:33:03.443Z,82
2023-01-20T20:36:03.498Z,82
2023-01-20T20:39:03.535Z,82
2023-01-20T20:42:03.540Z,82
2023-01-20T20:45:04.103Z,81.4
2023-01-20T20:48:03.536Z,81.4
2023-01-20T20:51:03.624Z,81.4
2023-01-20T20:54:03.629Z,81.4
2023-01-20T20:57:03.602Z,81.4
2023-01-20T21:00:03.758Z,82.5
2023-01-20T21:03:03.639Z,82.5
2023-01-20T21:06:03.581Z,82.5
2023-01-20T21:09:03.515Z,82.5
2023-01-20T21:12:03.470Z,82.5
2023-01-20T21:15:03.553Z,82.5
2023-01-20T21:18:03.466Z,82.5
2023-01-20T21:21:03.483Z,82.5
2023-01-20T21:24:03.444Z,82.5
2023-01-20T21:27:03.438Z,82.3
2023-01-20T21:30:03.540Z,82.3
2023-01-20T21:33:03.501Z,82.3
2023-01-20T21:36:03.475Z,82.3
2023-01-20T21:39:03.543Z,82.3
2023-01-20T21:42:03.444Z,82.3
2023-01-20T21:45:03.842Z,82.3
2023-01-20T21:48:03.443Z,81.8
2023-01-20T21:51:03.611Z,81.8
2023-01-20T21:54:03.511Z,81.8
2023-01-20T21:57:03.482Z,81.8
2023-01-20T22:00:03.587Z,81.8
2023-01-20T22:03:03.556Z,81.8
2023-01-20T22:06:03.494Z,81.6
2023-01-20T22:09:03.421Z,81.6
2023-01-20T22:12:03.437Z,81.6
2023-01-20T22:15:03.577Z,81.6
2023-01-20T22:18:03.501Z,81.6
2023-01-20T22:21:03.492Z,81.6
2023-01-20T22:24:03.490Z,81.6
2023-01-20T22:27:03.464Z,81.7
2023-01-20T22:30:03.534Z,81.7
2023-01-20T22:33:03.484Z,81.7
2023-01-20T22:36:03.563Z,81.7
2023-01-20T22:39:03.489Z,81.7
2023-01-20T22:42:03.529Z,81.7
2023-01-20T22:45:03.495Z,82.4
2023-01-20T22:48:03.576Z,82.4
2023-01-20T22:51:03.654Z,82.4
2023-01-20T22:54:03.546Z,82.4
2023-01-20T22:57:03.400Z,82.4
2023-01-20T23:00:04.066Z,83
2023-01-20T23:03:03.494Z,83
2023-01-20T23:06:03.516Z,83
2023-01-20T23:09:03.592Z,83
2023-01-20T23:12:03.405Z,83
2023-01-20T23:15:03.440Z,83
2023-01-20T23:18:03.502Z,83
2023-01-20T23:21:03.582Z,82.7
2023-01-20T23:24:03.433Z,82.7
2023-01-20T23:27:03.403Z,82.7
2023-01-20T23:30:03.434Z,82.7
2023-01-20T23:33:03.471Z,82.7
2023-01-20T23:36:03.564Z,82.7
2023-01-20T23:39:03.457Z,82.7
2023-01-20T23:42:03.609Z,83.1
2023-01-20T23:45:03.455Z,83.1
2023-01-20T23:48:03.524Z,83.1
2023-01-20T23:51:03.560Z,83.1
2023-01-20T23:54:03.527Z,83.1
2023-01-20T23:57:03.479Z,83.1
